Dades meteomassalio
Diari Summary for Gener 31, 2018 Units:  Both    English   Metric
« Previous Day
Next Day »
Diari Semanal Mensual Anual Personalitzat
  Maxima: Minima: Mijana:
Temperatura: TemperatureC °F /  -17.8 °C -2.8 °F /  -19.3 °C 2.8 °F /  -16.2 °C
Rosada: DewpointC °F /  -17.8 °C -3.9 °F /  -19.9 °C 0.6 °F /  -17.4 °C
Humitat: Humidity % 72 % 86 %
Velocitat del vent: WindSpeedKMH mph /  0 km/h - 1.2 mph /  1.9 km/h
Racha vent: WindSpeedGustKMH mph /  0 km/h - -
Vent:- - ESE
Pressio: PressurehPa in /  0 hPa 1020.9 in /  34567.7 hPa -
Pluja: 0.3 in /  7.62 mm    
Historical Graphs
 
 
Tabular Data for Gener 31, 2018
Time Temperature Dew Point Pressure Wind Wind Speed Wind Gust Humidity Rainfall Rate (Hourly) solar Conditions
TemperatureC °F /  -17.8 °C DewpointC °F /  -17.8 °C PressurehPa in /  0 hPa Calm     Humidity % HourlyPrecipMM in /  0 mm SolarRadiationWatts/m^2 W/m2 Conditions
00:00 0.0 °F /  -17.8 °C -1.3 °F /  -18.5 °C 1031.4 in /  34923.2 hPa Calm     91 % 0.0 in /  0 mm 0.0 W/m2 CLR
00:05 0.0 °F /  -17.8 °C -1.3 °F /  -18.5 °C 1031.4 in /  34923.2 hPa Calm     91 % 0.0 in /  0 mm 0.0 W/m2 CLR
00:10 0.0 °F /  -17.8 °C -1.3 °F /  -18.5 °C 1031.4 in /  34923.2 hPa Calm     91 % 0.0 in /  0 mm 0.0 W/m2 CLR
00:15 0.6 °F /  -17.4 °C -0.7 °F /  -18.2 °C 1031.4 in /  34923.2 hPa Calm     91 % 0.0 in /  0 mm 0.0 W/m2 CLR
00:20 0.0 °F /  -17.8 °C -1.3 °F /  -18.5 °C 1031.4 in /  34923.2 hPa Calm     91 % 0.0 in /  0 mm 0.0 W/m2 CLR
00:25 0.0 °F /  -17.8 °C -1.3 °F /  -18.5 °C 1031.4 in /  34923.2 hPa Calm     91 % 0.0 in /  0 mm 0.0 W/m2 CLR
00:30 0.0 °F /  -17.8 °C -1.3 °F /  -18.5 °C 1031.4 in /  34923.2 hPa Calm     91 % 0.0 in /  0 mm 0.0 W/m2 CLR
00:35 0.0 °F /  -17.8 °C -1.3 °F /  -18.5 °C 1031.4 in /  34923.2 hPa Calm     91 % 0.0 in /  0 mm 0.0 W/m2 CLR
00:40 0.0 °F /  -17.8 °C -1.2 °F /  -18.4 °C 1031.0 in /  34909.7 hPa Calm     92 % 0.0 in /  0 mm 0.0 W/m2 CLR
00:45 0.0 °F /  -17.8 °C -1.3 °F /  -18.5 °C 1031.0 in /  34909.7 hPa Calm     91 % 0.0 in /  0 mm 0.0 W/m2 CLR
00:50 -0.6 °F /  -18.1 °C -1.8 °F /  -18.8 °C 1031.0 in /  34909.7 hPa Calm     91 % 0.0 in /  0 mm 0.0 W/m2 CLR
00:55 -0.6 °F /  -18.1 °C -1.8 °F /  -18.8 °C 1031.0 in /  34909.7 hPa Calm     91 % 0.0 in /  0 mm 0.0 W/m2 CLR
01:00 -0.6 °F /  -18.1 °C -1.8 °F /  -18.8 °C 1031.0 in /  34909.7 hPa Calm     91 % 0.0 in /  0 mm 0.0 W/m2 CLR
01:05 -0.6 °F /  -18.1 °C -1.7 °F /  -18.7 °C 1031.0 in /  34909.7 hPa Calm     92 % 0.0 in /  0 mm 0.0 W/m2 CLR
01:10 0.0 °F /  -17.8 °C -1.3 °F /  -18.5 °C 1031.0 in /  34909.7 hPa Calm     91 % 0.0 in /  0 mm 0.0 W/m2 CLR
01:15 0.0 °F /  -17.8 °C -1.2 °F /  -18.4 °C 1031.0 in /  34909.7 hPa Calm     92 % 0.0 in /  0 mm 0.0 W/m2 CLR
01:20 0.0 °F /  -17.8 °C -1.2 °F /  -18.4 °C 1031.0 in /  34909.7 hPa Calm     92 % 0.0 in /  0 mm 0.0 W/m2 CLR
01:25 0.0 °F /  -17.8 °C -1.2 °F /  -18.4 °C 1031.0 in /  34909.7 hPa Calm     92 % 0.0 in /  0 mm 0.0 W/m2 CLR
01:30 -0.6 °F /  -18.1 °C -1.7 °F /  -18.7 °C 1031.0 in /  34909.7 hPa Calm     92 % 0.0 in /  0 mm 0.0 W/m2 CLR
01:35 -0.6 °F /  -18.1 °C -1.7 °F /  -18.7 °C 1030.7 in /  34899.5 hPa Calm     92 % 0.0 in /  0 mm 0.0 W/m2 CLR
01:40 0.0 °F /  -17.8 °C -1.2 °F /  -18.4 °C 1030.7 in /  34899.5 hPa Calm     92 % 0.0 in /  0 mm 0.0 W/m2 CLR
01:45 -0.6 °F /  -18.1 °C -1.7 °F /  -18.7 °C 1030.7 in /  34899.5 hPa Calm     92 % 0.0 in /  0 mm 0.0 W/m2 CLR
01:50 -0.6 °F /  -18.1 °C -1.7 °F /  -18.7 °C 1030.7 in /  34899.5 hPa Calm     92 % 0.0 in /  0 mm 0.0 W/m2 CLR
01:55 -0.6 °F /  -18.1 °C -1.7 °F /  -18.7 °C 1030.7 in /  34899.5 hPa Calm     92 % 0.0 in /  0 mm 0.0 W/m2 CLR
02:00 -1.1 °F /  -18.4 °C -2.2 °F /  -19 °C 1030.7 in /  34899.5 hPa Calm     92 % 0.0 in /  0 mm 0.0 W/m2 CLR
02:05 -1.1 °F /  -18.4 °C -2.2 °F /  -19 °C 1030.4 in /  34889.3 hPa Calm     92 % 0.0 in /  0 mm 0.0 W/m2 CLR
02:10 -0.6 °F /  -18.1 °C -1.7 °F /  -18.7 °C 1030.4 in /  34889.3 hPa Calm     92 % 0.0 in /  0 mm 0.0 W/m2 CLR
02:15 -0.6 °F /  -18.1 °C -1.7 °F /  -18.7 °C 1030.4 in /  34889.3 hPa Calm     92 % 0.0 in /  0 mm 0.0 W/m2 CLR
02:20 -0.6 °F /  -18.1 °C -1.7 °F /  -18.7 °C 1030.4 in /  34889.3 hPa Calm     92 % 0.0 in /  0 mm 0.0 W/m2 CLR
02:25 -1.1 °F /  -18.4 °C -2.2 °F /  -19 °C 1030.4 in /  34889.3 hPa Calm     92 % 0.0 in /  0 mm 0.0 W/m2 CLR
02:30 -1.1 °F /  -18.4 °C -2.2 °F /  -19 °C 1030.4 in /  34889.3 hPa Calm     92 % 0.0 in /  0 mm 0.0 W/m2 CLR
02:35 -1.1 °F /  -18.4 °C -2.2 °F /  -19 °C 1030.4 in /  34889.3 hPa Calm     92 % 0.0 in /  0 mm 0.0 W/m2 CLR
02:40 -1.1 °F /  -18.4 °C -2.2 °F /  -19 °C 1030.4 in /  34889.3 hPa Calm     92 % 0.0 in /  0 mm 0.0 W/m2 CLR
02:45 -1.7 °F /  -18.7 °C -2.8 °F /  -19.3 °C 1030.4 in /  34889.3 hPa Calm     92 % 0.0 in /  0 mm 0.0 W/m2 CLR
02:50 -1.7 °F /  -18.7 °C -2.8 °F /  -19.3 °C 1030.4 in /  34889.3 hPa Calm     92 % 0.0 in /  0 mm 0.0 W/m2 CLR
02:55 -1.7 °F /  -18.7 °C -2.8 °F /  -19.3 °C 1030.4 in /  34889.3 hPa Calm     92 % 0.0 in /  0 mm 0.0 W/m2 CLR
03:00 -1.7 °F /  -18.7 °C -2.8 °F /  -19.3 °C 1030.4 in /  34889.3 hPa Calm     92 % 0.0 in /  0 mm 0.0 W/m2 CLR
03:05 -1.7 °F /  -18.7 °C -2.8 °F /  -19.3 °C 1030.0 in /  34875.8 hPa Calm     92 % 0.0 in /  0 mm 0.0 W/m2 CLR
03:10 -1.7 °F /  -18.7 °C -2.8 °F /  -19.3 °C 1030.0 in /  34875.8 hPa Calm     92 % 0.0 in /  0 mm 0.0 W/m2 CLR
03:15 -1.7 °F /  -18.7 °C -2.8 °F /  -19.3 °C 1030.0 in /  34875.8 hPa Calm     92 % 0.0 in /  0 mm 0.0 W/m2 CLR
03:20 -1.7 °F /  -18.7 °C -2.8 °F /  -19.3 °C 1030.0 in /  34875.8 hPa Calm     92 % 0.0 in /  0 mm 0.0 W/m2 CLR
03:25 -1.7 °F /  -18.7 °C -2.8 °F /  -19.3 °C 1030.0 in /  34875.8 hPa Calm     92 % 0.0 in /  0 mm 0.0 W/m2 CLR
03:30 -1.7 °F /  -18.7 °C -2.8 °F /  -19.3 °C 1030.0 in /  34875.8 hPa Calm     92 % 0.0 in /  0 mm 0.0 W/m2 CLR
03:35 -1.7 °F /  -18.7 °C -2.8 °F /  -19.3 °C 1030.0 in /  34875.8 hPa Calm     92 % 0.0 in /  0 mm 0.0 W/m2 CLR
03:40 -1.7 °F /  -18.7 °C -2.8 °F /  -19.3 °C 1030.0 in /  34875.8 hPa Calm     92 % 0.0 in /  0 mm 0.0 W/m2 CLR
03:45 -2.2 °F /  -19 °C -3.3 °F /  -19.6 °C 1030.0 in /  34875.8 hPa Calm     92 % 0.0 in /  0 mm 0.0 W/m2 CLR
03:50 -2.2 °F /  -19 °C -3.3 °F /  -19.6 °C 1030.0 in /  34875.8 hPa Calm     92 % 0.0 in /  0 mm 0.0 W/m2 CLR
03:55 -1.7 °F /  -18.7 °C -2.8 °F /  -19.3 °C 1030.0 in /  34875.8 hPa Calm     92 % 0.0 in /  0 mm 0.0 W/m2 CLR
04:00 -1.7 °F /  -18.7 °C -2.8 °F /  -19.3 °C 1029.7 in /  34865.6 hPa Calm     92 % 0.0 in /  0 mm 0.0 W/m2 CLR
04:05 -2.2 °F /  -19 °C -3.3 °F /  -19.6 °C 1029.7 in /  34865.6 hPa Calm     92 % 0.0 in /  0 mm 0.0 W/m2 CLR
04:10 -1.7 °F /  -18.7 °C -2.7 °F /  -19.3 °C 1029.7 in /  34865.6 hPa Calm     93 % 0.0 in /  0 mm 0.0 W/m2 CLR
04:15 -1.7 °F /  -18.7 °C -2.7 °F /  -19.3 °C 1029.7 in /  34865.6 hPa Calm     93 % 0.0 in /  0 mm 0.0 W/m2 CLR
04:20 -1.7 °F /  -18.7 °C -2.8 °F /  -19.3 °C 1029.7 in /  34865.6 hPa Calm     92 % 0.0 in /  0 mm 0.0 W/m2 CLR
04:25 -1.7 °F /  -18.7 °C -2.8 °F /  -19.3 °C 1029.7 in /  34865.6 hPa Calm     92 % 0.0 in /  0 mm 0.0 W/m2 CLR
04:30 -1.7 °F /  -18.7 °C -2.8 °F /  -19.3 °C 1029.7 in /  34865.6 hPa Calm     92 % 0.0 in /  0 mm 0.0 W/m2 CLR
04:35 -1.7 °F /  -18.7 °C -2.8 °F /  -19.3 °C 1029.7 in /  34865.6 hPa Calm     92 % 0.0 in /  0 mm 0.0 W/m2 CLR
04:40 -1.7 °F /  -18.7 °C -2.7 °F /  -19.3 °C 1029.7 in /  34865.6 hPa Calm     93 % 0.0 in /  0 mm 0.0 W/m2 CLR
04:45 -1.7 °F /  -18.7 °C -2.7 °F /  -19.3 °C 1029.3 in /  34852.1 hPa Calm     93 % 0.0 in /  0 mm 0.0 W/m2 CLR
04:50 -1.7 °F /  -18.7 °C -2.8 °F /  -19.3 °C 1029.3 in /  34852.1 hPa Calm     92 % 0.0 in /  0 mm 0.0 W/m2 CLR
04:55 -2.2 °F /  -19 °C -3.3 °F /  -19.6 °C 1029.3 in /  34852.1 hPa Calm     92 % 0.0 in /  0 mm 0.0 W/m2 CLR
05:00 -2.2 °F /  -19 °C -3.3 °F /  -19.6 °C 1029.3 in /  34852.1 hPa Calm     92 % 0.0 in /  0 mm 0.0 W/m2 CLR
05:05 -1.7 °F /  -18.7 °C -2.8 °F /  -19.3 °C 1029.3 in /  34852.1 hPa Calm     92 % 0.0 in /  0 mm 0.0 W/m2 CLR
05:10 -1.7 °F /  -18.7 °C -2.8 °F /  -19.3 °C 1029.3 in /  34852.1 hPa Calm     92 % 0.0 in /  0 mm 0.0 W/m2 CLR
05:15 -1.1 °F /  -18.4 °C -2.2 °F /  -19 °C 1029.3 in /  34852.1 hPa Calm     92 % 0.0 in /  0 mm 0.0 W/m2 CLR
05:20 -1.7 °F /  -18.7 °C -2.8 °F /  -19.3 °C 1029.3 in /  34852.1 hPa Calm     92 % 0.0 in /  0 mm 0.0 W/m2 CLR
05:25 -1.7 °F /  -18.7 °C -2.8 °F /  -19.3 °C 1029.3 in /  34852.1 hPa Calm     92 % 0.0 in /  0 mm 0.0 W/m2 CLR
05:30 -1.7 °F /  -18.7 °C -2.8 °F /  -19.3 °C 1029.3 in /  34852.1 hPa Calm     92 % 0.0 in /  0 mm 0.0 W/m2 CLR
05:35 -1.7 °F /  -18.7 °C -2.8 °F /  -19.3 °C 1029.3 in /  34852.1 hPa Calm     92 % 0.0 in /  0 mm 0.0 W/m2 CLR
05:41 -1.7 °F /  -18.7 °C -2.8 °F /  -19.3 °C 1029.3 in /  34852.1 hPa Calm     92 % 0.0 in /  0 mm 0.0 W/m2 CLR
05:46 -1.7 °F /  -18.7 °C -2.7 °F /  -19.3 °C 1029.3 in /  34852.1 hPa Calm     93 % 0.0 in /  0 mm 0.0 W/m2 CLR
05:51 -2.2 °F /  -19 °C -3.3 °F /  -19.6 °C 1029.3 in /  34852.1 hPa Calm     92 % 0.0 in /  0 mm 0.0 W/m2 CLR
05:56 -1.7 °F /  -18.7 °C -2.8 °F /  -19.3 °C 1029.3 in /  34852.1 hPa Calm     92 % 0.0 in /  0 mm 0.0 W/m2 CLR
06:01 -1.7 °F /  -18.7 °C -2.7 °F /  -19.3 °C 1029.3 in /  34852.1 hPa Calm     93 % 0.0 in /  0 mm 0.0 W/m2 CLR
06:06 -1.7 °F /  -18.7 °C -2.7 °F /  -19.3 °C 1029.3 in /  34852.1 hPa Calm     93 % 0.0 in /  0 mm 0.0 W/m2 CLR
06:11 -2.2 °F /  -19 °C -3.3 °F /  -19.6 °C 1029.3 in /  34852.1 hPa Calm     92 % 0.0 in /  0 mm 0.0 W/m2 CLR
06:16 -2.2 °F /  -19 °C -3.2 °F /  -19.6 °C 1029.3 in /  34852.1 hPa Calm     93 % 0.0 in /  0 mm 0.0 W/m2 CLR
06:21 -2.2 °F /  -19 °C -3.2 °F /  -19.6 °C 1029.3 in /  34852.1 hPa Calm     93 % 0.0 in /  0 mm 0.0 W/m2 CLR
06:26 -2.2 °F /  -19 °C -3.2 °F /  -19.6 °C 1029.0 in /  34841.9 hPa Calm     93 % 0.0 in /  0 mm 0.0 W/m2 CLR
06:31 -2.2 °F /  -19 °C -3.2 °F /  -19.6 °C 1029.0 in /  34841.9 hPa Calm     93 % 0.0 in /  0 mm 0.0 W/m2 CLR
06:36 -2.2 °F /  -19 °C -3.2 °F /  -19.6 °C 1029.0 in /  34841.9 hPa Calm     93 % 0.0 in /  0 mm 0.0 W/m2 CLR
06:41 -2.8 °F /  -19.3 °C -3.8 °F /  -19.9 °C 1029.0 in /  34841.9 hPa Calm     93 % 0.0 in /  0 mm 0.0 W/m2 CLR
06:46 -2.8 °F /  -19.3 °C -3.8 °F /  -19.9 °C 1029.0 in /  34841.9 hPa Calm     93 % 0.0 in /  0 mm 0.0 W/m2 CLR
06:51 -2.8 °F /  -19.3 °C -3.8 °F /  -19.9 °C 1029.0 in /  34841.9 hPa Calm     93 % 0.0 in /  0 mm 0.0 W/m2 CLR
06:56 -2.8 °F /  -19.3 °C -3.9 °F /  -19.9 °C 1029.0 in /  34841.9 hPa Calm     92 % 0.0 in /  0 mm 0.0 W/m2 CLR
07:01 -2.8 °F /  -19.3 °C -3.8 °F /  -19.9 °C 1029.0 in /  34841.9 hPa Calm     93 % 0.0 in /  0 mm 0.0 W/m2 CLR
07:06 -2.8 °F /  -19.3 °C -3.8 °F /  -19.9 °C 1029.3 in /  34852.1 hPa Calm     93 % 0.0 in /  0 mm 0.0 W/m2 CLR
07:11 -2.8 °F /  -19.3 °C -3.8 °F /  -19.9 °C 1029.3 in /  34852.1 hPa Calm     93 % 0.0 in /  0 mm 0.0 W/m2 CLR
07:16 -2.8 °F /  -19.3 °C -3.8 °F /  -19.9 °C 1029.3 in /  34852.1 hPa Calm     93 % 0.0 in /  0 mm 0.0 W/m2 CLR
07:21 -2.8 °F /  -19.3 °C -3.8 °F /  -19.9 °C 1029.3 in /  34852.1 hPa Calm     93 % 0.0 in /  0 mm 0.0 W/m2 CLR
07:26 -2.8 °F /  -19.3 °C -3.8 °F /  -19.9 °C 1029.3 in /  34852.1 hPa Calm     93 % 0.0 in /  0 mm 0.0 W/m2 CLR
07:31 -2.8 °F /  -19.3 °C -3.8 °F /  -19.9 °C 1029.7 in /  34865.6 hPa Calm     93 % 0.0 in /  0 mm 0.0 W/m2 CLR
07:36 -2.8 °F /  -19.3 °C -3.8 °F /  -19.9 °C 1029.7 in /  34865.6 hPa Calm     93 % 0.0 in /  0 mm 0.0 W/m2 CLR
07:41 -2.8 °F /  -19.3 °C -3.8 °F /  -19.9 °C 1029.7 in /  34865.6 hPa Calm     93 % 0.0 in /  0 mm 0.0 W/m2 CLR
07:46 -2.8 °F /  -19.3 °C -3.8 °F /  -19.9 °C 1029.7 in /  34865.6 hPa Calm     93 % 0.0 in /  0 mm 0.0 W/m2 CLR
07:51 -2.8 °F /  -19.3 °C -3.8 °F /  -19.9 °C 1029.7 in /  34865.6 hPa Calm     93 % 0.0 in /  0 mm 0.0 W/m2 CLR
07:56 -2.8 °F /  -19.3 °C -3.8 °F /  -19.9 °C 1029.3 in /  34852.1 hPa Calm     93 % 0.0 in /  0 mm 0.0 W/m2 CLR
08:01 -2.8 °F /  -19.3 °C -3.8 °F /  -19.9 °C 1029.3 in /  34852.1 hPa Calm     93 % 0.0 in /  0 mm 0.0 W/m2 OVC
08:06 -2.8 °F /  -19.3 °C -3.8 °F /  -19.9 °C 1029.3 in /  34852.1 hPa Calm     93 % 0.0 in /  0 mm 0.0 W/m2 OVC
08:11 -2.8 °F /  -19.3 °C -3.8 °F /  -19.9 °C 1029.3 in /  34852.1 hPa Calm     93 % 0.0 in /  0 mm 5.0 W/m2 OVC
08:16 -2.8 °F /  -19.3 °C -3.8 °F /  -19.9 °C 1029.3 in /  34852.1 hPa Calm     93 % 0.0 in /  0 mm 7.0 W/m2 BKN
08:21 -2.8 °F /  -19.3 °C -3.8 °F /  -19.9 °C 1029.3 in /  34852.1 hPa Calm     93 % 0.0 in /  0 mm 11.0 W/m2 BKN
08:26 -2.8 °F /  -19.3 °C -3.8 °F /  -19.9 °C 1029.3 in /  34852.1 hPa Calm     93 % 0.0 in /  0 mm 14.0 W/m2 BKN
08:31 -2.8 °F /  -19.3 °C -3.8 °F /  -19.9 °C 1029.3 in /  34852.1 hPa Calm     93 % 0.0 in /  0 mm 16.0 W/m2 BKN
08:36 -2.8 °F /  -19.3 °C -3.8 °F /  -19.9 °C 1029.3 in /  34852.1 hPa Calm     93 % 0.0 in /  0 mm 21.0 W/m2 BKN
08:41 -2.8 °F /  -19.3 °C -3.8 °F /  -19.9 °C 1029.3 in /  34852.1 hPa Calm     93 % 0.0 in /  0 mm 25.0 W/m2 BKN
08:46 -2.8 °F /  -19.3 °C -3.8 °F /  -19.9 °C 1029.7 in /  34865.6 hPa Calm     93 % 0.0 in /  0 mm 32.0 W/m2 BKN
08:51 -2.8 °F /  -19.3 °C -3.8 °F /  -19.9 °C 1029.7 in /  34865.6 hPa Calm     93 % 0.0 in /  0 mm 49.0 W/m2 BKN
08:56 -2.8 °F /  -19.3 °C -3.8 °F /  -19.9 °C 1029.7 in /  34865.6 hPa Calm     93 % 0.0 in /  0 mm 62.0 W/m2 SCT
09:01 -2.8 °F /  -19.3 °C -3.8 °F /  -19.9 °C 1029.7 in /  34865.6 hPa Calm     93 % 0.0 in /  0 mm 60.0 W/m2 SCT
09:06 -2.8 °F /  -19.3 °C -3.8 °F /  -19.9 °C 1029.7 in /  34865.6 hPa Calm     93 % 0.0 in /  0 mm 88.0 W/m2 CLR
09:11 -2.2 °F /  -19 °C -3.2 °F /  -19.6 °C 1029.7 in /  34865.6 hPa Calm     93 % 0.0 in /  0 mm 100.0 W/m2 CLR
09:16 -2.2 °F /  -19 °C -3.2 °F /  -19.6 °C 1029.7 in /  34865.6 hPa Calm     93 % 0.0 in /  0 mm 107.0 W/m2 CLR
09:21 -1.7 °F /  -18.7 °C -2.7 °F /  -19.3 °C 1029.7 in /  34865.6 hPa Calm     93 % 0.0 in /  0 mm 120.0 W/m2 CLR
09:26 -1.7 °F /  -18.7 °C -2.7 °F /  -19.3 °C 1029.7 in /  34865.6 hPa Calm     93 % 0.0 in /  0 mm 128.0 W/m2 CLR
09:31 -1.7 °F /  -18.7 °C -2.7 °F /  -19.3 °C 1029.7 in /  34865.6 hPa Calm     93 % 0.0 in /  0 mm 139.0 W/m2 CLR
09:36 -1.1 °F /  -18.4 °C -2.1 °F /  -18.9 °C 1029.7 in /  34865.6 hPa Calm     93 % 0.3 in /  7.62 mm 160.0 W/m2 RA
09:41 -1.1 °F /  -18.4 °C -2.1 °F /  -18.9 °C 1029.3 in /  34852.1 hPa Calm     93 % 0.3 in /  7.62 mm 171.0 W/m2 CLR
09:46 -1.1 °F /  -18.4 °C -2.1 °F /  -18.9 °C 1029.3 in /  34852.1 hPa Calm     93 % 0.3 in /  7.62 mm 146.0 W/m2 CLR
09:51 -0.6 °F /  -18.1 °C -1.6 °F /  -18.7 °C 1029.7 in /  34865.6 hPa Calm     93 % 0.3 in /  7.62 mm 193.0 W/m2 CLR
09:56 0.0 °F /  -17.8 °C -1.0 °F /  -18.3 °C 1029.7 in /  34865.6 hPa Calm     93 % 0.3 in /  7.62 mm 197.0 W/m2 CLR
10:01 0.0 °F /  -17.8 °C -1.0 °F /  -18.3 °C 1029.3 in /  34852.1 hPa Calm     93 % 0.3 in /  7.62 mm 232.0 W/m2 CLR
10:06 0.6 °F /  -17.4 °C -0.6 °F /  -18.1 °C 1029.7 in /  34865.6 hPa Calm     92 % 0.3 in /  7.62 mm 241.0 W/m2 CLR
10:11 0.6 °F /  -17.4 °C -0.6 °F /  -18.1 °C 1029.7 in /  34865.6 hPa Calm     92 % 0.3 in /  7.62 mm 257.0 W/m2 CLR
10:16 0.6 °F /  -17.4 °C -0.6 °F /  -18.1 °C 1029.3 in /  34852.1 hPa Calm     92 % 0.3 in /  7.62 mm 269.0 W/m2 CLR
10:21 1.1 °F /  -17.2 °C -0.1 °F /  -17.8 °C 1029.3 in /  34852.1 hPa Calm     92 % 0.3 in /  7.62 mm 283.0 W/m2 CLR
10:26 1.1 °F /  -17.2 °C -0.1 °F /  -17.8 °C 1029.7 in /  34865.6 hPa Calm     92 % 0.3 in /  7.62 mm 294.0 W/m2 CLR
10:31 1.7 °F /  -16.8 °C 0.3 °F /  -17.6 °C 1029.7 in /  34865.6 hPa Calm     91 % 0.3 in /  7.62 mm 306.0 W/m2 CLR
10:36 2.2 °F /  -16.6 °C 0.9 °F /  -17.3 °C 1029.3 in /  34852.1 hPa Calm     91 % 0.0 in /  0 mm 323.0 W/m2 CLR
10:41 2.8 °F /  -16.2 °C 1.2 °F /  -17.1 °C 1029.7 in /  34865.6 hPa Calm     89 % 0.0 in /  0 mm 338.0 W/m2 CLR
10:46 2.8 °F /  -16.2 °C 1.0 °F /  -17.2 °C 1029.7 in /  34865.6 hPa Calm     88 % 0.0 in /  0 mm 353.0 W/m2 CLR
10:51 3.3 °F /  -15.9 °C 1.4 °F /  -17 °C 1029.7 in /  34865.6 hPa Calm     87 % 0.0 in /  0 mm 367.0 W/m2 CLR
10:57 3.3 °F /  -15.9 °C 1.2 °F /  -17.1 °C 1029.3 in /  34852.1 hPa Calm     86 % 0.0 in /  0 mm 378.0 W/m2 CLR
11:02 3.9 °F /  -15.6 °C 1.6 °F /  -16.9 °C 1029.3 in /  34852.1 hPa Calm     85 % 0.0 in /  0 mm 390.0 W/m2 CLR
11:07 3.9 °F /  -15.6 °C 1.3 °F /  -17.1 °C 1029.7 in /  34865.6 hPa Calm     83 % 0.0 in /  0 mm 404.0 W/m2 CLR
11:12 4.4 °F /  -15.3 °C 1.4 °F /  -17 °C 1029.3 in /  34852.1 hPa Calm     81 % 0.0 in /  0 mm 413.0 W/m2 CLR
11:17 5.0 °F /  -15 °C 1.8 °F /  -16.8 °C 1029.3 in /  34852.1 hPa Calm     80 % 0.0 in /  0 mm 422.0 W/m2 CLR
11:22 5.0 °F /  -15 °C 1.8 °F /  -16.8 °C 1029.3 in /  34852.1 hPa Calm     80 % 0.0 in /  0 mm 429.0 W/m2 CLR
11:27 5.6 °F /  -14.7 °C 2.2 °F /  -16.6 °C 1029.3 in /  34852.1 hPa Calm     79 % 0.0 in /  0 mm 438.0 W/m2 CLR
11:32 6.1 °F /  -14.4 °C 2.7 °F /  -16.3 °C 1029.3 in /  34852.1 hPa Calm     79 % 0.0 in /  0 mm 448.0 W/m2 CLR
11:37 6.1 °F /  -14.4 °C 2.6 °F /  -16.3 °C 1029.3 in /  34852.1 hPa Calm     78 % 0.0 in /  0 mm 455.0 W/m2 CLR
11:42 6.7 °F /  -14.1 °C 2.9 °F /  -16.2 °C 1029.3 in /  34852.1 hPa Calm     77 % 0.0 in /  0 mm 462.0 W/m2 CLR
11:47 6.7 °F /  -14.1 °C 2.9 °F /  -16.2 °C 1029.3 in /  34852.1 hPa East 5.6 mph /  9 km/h 5.6 mph /  9 km/h 77 % 0.0 in /  0 mm 471.0 W/m2 CLR
11:52 7.2 °F /  -13.8 °C 3.4 °F /  -15.9 °C 1029.3 in /  34852.1 hPa East 5.6 mph /  9 km/h 5.6 mph /  9 km/h 77 % 0.0 in /  0 mm 478.0 W/m2 CLR
11:57 7.8 °F /  -13.4 °C 3.8 °F /  -15.7 °C 1029.3 in /  34852.1 hPa East 8.0 mph /  12.9 km/h 8.0 mph /  12.9 km/h 76 % 0.0 in /  0 mm 483.0 W/m2 CLR
12:02 7.8 °F /  -13.4 °C 3.8 °F /  -15.7 °C 1029.0 in /  34841.9 hPa East 5.6 mph /  9 km/h 5.6 mph /  9 km/h 76 % 0.0 in /  0 mm 489.0 W/m2 CLR
12:07 7.8 °F /  -13.4 °C 4.2 °F /  -15.4 °C 1029.0 in /  34841.9 hPa Calm     78 % 0.0 in /  0 mm 496.0 W/m2 CLR
12:12 7.8 °F /  -13.4 °C 4.0 °F /  -15.6 °C 1029.0 in /  34841.9 hPa ENE 6.4 mph /  10.3 km/h 6.4 mph /  10.3 km/h 77 % 0.0 in /  0 mm 499.0 W/m2 CLR
12:17 8.3 °F /  -13.2 °C 4.6 °F /  -15.2 °C 1029.0 in /  34841.9 hPa East 5.6 mph /  9 km/h 5.6 mph /  9 km/h 77 % 0.0 in /  0 mm 504.0 W/m2 CLR
12:22 8.3 °F /  -13.2 °C 4.7 °F /  -15.2 °C 1029.0 in /  34841.9 hPa East 7.4 mph /  11.9 km/h 7.4 mph /  11.9 km/h 78 % 0.0 in /  0 mm 508.0 W/m2 CLR
12:27 8.9 °F /  -12.8 °C 5.1 °F /  -14.9 °C 1028.7 in /  34831.8 hPa ENE 5.6 mph /  9 km/h 5.6 mph /  9 km/h 77 % 0.0 in /  0 mm 513.0 W/m2 CLR
12:32 8.9 °F /  -12.8 °C 5.3 °F /  -14.8 °C 1028.7 in /  34831.8 hPa ENE 5.6 mph /  9 km/h 5.6 mph /  9 km/h 78 % 0.0 in /  0 mm 517.0 W/m2 CLR
12:37 8.9 °F /  -12.8 °C 5.1 °F /  -14.9 °C 1028.7 in /  34831.8 hPa ENE 5.6 mph /  9 km/h 5.6 mph /  9 km/h 77 % 0.0 in /  0 mm 519.0 W/m2 CLR
12:42 8.9 °F /  -12.8 °C 5.3 °F /  -14.8 °C 1028.3 in /  34818.2 hPa ENE 7.4 mph /  11.9 km/h 7.4 mph /  11.9 km/h 78 % 0.0 in /  0 mm 520.0 W/m2 CLR
12:47 8.9 °F /  -12.8 °C 5.3 °F /  -14.8 °C 1028.3 in /  34818.2 hPa East 5.6 mph /  9 km/h 5.6 mph /  9 km/h 78 % 0.0 in /  0 mm 522.0 W/m2 CLR
12:52 8.9 °F /  -12.8 °C 5.3 °F /  -14.8 °C 1028.3 in /  34818.2 hPa East 5.6 mph /  9 km/h 5.6 mph /  9 km/h 78 % 0.0 in /  0 mm 526.0 W/m2 CLR
12:57 8.9 °F /  -12.8 °C 5.3 °F /  -14.8 °C 1028.3 in /  34818.2 hPa ENE 7.4 mph /  11.9 km/h 7.4 mph /  11.9 km/h 78 % 0.0 in /  0 mm 526.0 W/m2 CLR
13:02 8.9 °F /  -12.8 °C 5.3 °F /  -14.8 °C 1028.0 in /  34808.1 hPa ENE 7.4 mph /  11.9 km/h 7.4 mph /  11.9 km/h 78 % 0.0 in /  0 mm 526.0 W/m2 CLR
13:07 8.9 °F /  -12.8 °C 5.3 °F /  -14.8 °C 1028.0 in /  34808.1 hPa East 4.8 mph /  7.7 km/h 4.8 mph /  7.7 km/h 78 % 0.0 in /  0 mm 527.0 W/m2 CLR
13:12 8.9 °F /  -12.8 °C 5.3 °F /  -14.8 °C 1028.0 in /  34808.1 hPa ENE 5.6 mph /  9 km/h 5.6 mph /  9 km/h 78 % 0.0 in /  0 mm 527.0 W/m2 CLR
13:17 9.4 °F /  -12.6 °C 5.6 °F /  -14.7 °C 1027.7 in /  34797.9 hPa East 5.6 mph /  9 km/h 5.6 mph /  9 km/h 77 % 0.0 in /  0 mm 526.0 W/m2 CLR
13:22 10.0 °F /  -12.2 °C 5.9 °F /  -14.5 °C 1027.7 in /  34797.9 hPa Calm     76 % 0.0 in /  0 mm 526.0 W/m2 CLR
13:27 10.0 °F /  -12.2 °C 6.3 °F /  -14.3 °C 1027.7 in /  34797.9 hPa East 5.6 mph /  9 km/h 5.6 mph /  9 km/h 78 % 0.0 in /  0 mm 526.0 W/m2 CLR
13:32 9.4 °F /  -12.6 °C 5.4 °F /  -14.8 °C 1027.7 in /  34797.9 hPa East 5.6 mph /  9 km/h 5.6 mph /  9 km/h 76 % 0.0 in /  0 mm 524.0 W/m2 CLR
13:37 10.0 °F /  -12.2 °C 5.9 °F /  -14.5 °C 1027.3 in /  34784.4 hPa East 5.6 mph /  9 km/h 5.6 mph /  9 km/h 76 % 0.0 in /  0 mm 522.0 W/m2 CLR
13:42 10.0 °F /  -12.2 °C 5.9 °F /  -14.5 °C 1027.3 in /  34784.4 hPa ENE 3.7 mph /  6 km/h 3.7 mph /  6 km/h 76 % 0.0 in /  0 mm 522.0 W/m2 CLR
13:47 10.0 °F /  -12.2 °C 5.8 °F /  -14.6 °C 1027.3 in /  34784.4 hPa Calm     75 % 0.0 in /  0 mm 519.0 W/m2 CLR
13:52 10.6 °F /  -11.9 °C 6.1 °F /  -14.4 °C 1027.0 in /  34774.2 hPa East 3.7 mph /  6 km/h 3.7 mph /  6 km/h 74 % 0.0 in /  0 mm 517.0 W/m2 CLR
13:57 10.6 °F /  -11.9 °C 6.1 °F /  -14.4 °C 1027.0 in /  34774.2 hPa East 7.4 mph /  11.9 km/h 7.4 mph /  11.9 km/h 74 % 0.0 in /  0 mm 513.0 W/m2 CLR
14:02 11.1 °F /  -11.6 °C 6.4 °F /  -14.2 °C 1026.6 in /  34760.7 hPa ESE 5.6 mph /  9 km/h 5.6 mph /  9 km/h 73 % 0.0 in /  0 mm 510.0 W/m2 CLR
14:07 11.1 °F /  -11.6 °C 6.7 °F /  -14.1 °C 1026.6 in /  34760.7 hPa East 5.6 mph /  9 km/h 5.6 mph /  9 km/h 74 % 0.0 in /  0 mm 504.0 W/m2 CLR
14:12 11.1 °F /  -11.6 °C 6.7 °F /  -14.1 °C 1026.6 in /  34760.7 hPa East 5.6 mph /  9 km/h 5.6 mph /  9 km/h 74 % 0.0 in /  0 mm 497.0 W/m2 CLR
14:17 11.1 °F /  -11.6 °C 6.7 °F /  -14.1 °C 1026.6 in /  34760.7 hPa East 5.6 mph /  9 km/h 5.6 mph /  9 km/h 74 % 0.0 in /  0 mm 494.0 W/m2 CLR
14:22 10.6 °F /  -11.9 °C 5.9 °F /  -14.5 °C 1026.6 in /  34760.7 hPa ENE 5.6 mph /  9 km/h 5.6 mph /  9 km/h 73 % 0.0 in /  0 mm 489.0 W/m2 CLR
14:27 10.6 °F /  -11.9 °C 5.9 °F /  -14.5 °C 1026.3 in /  34750.5 hPa East 7.4 mph /  11.9 km/h 7.4 mph /  11.9 km/h 73 % 0.0 in /  0 mm 483.0 W/m2 CLR
14:32 11.1 °F /  -11.6 °C 6.4 °F /  -14.2 °C 1026.3 in /  34750.5 hPa ENE 3.7 mph /  6 km/h 3.7 mph /  6 km/h 73 % 0.0 in /  0 mm 478.0 W/m2 CLR
14:37 11.1 °F /  -11.6 °C 6.7 °F /  -14.1 °C 1026.3 in /  34750.5 hPa East 5.6 mph /  9 km/h 5.6 mph /  9 km/h 74 % 0.0 in /  0 mm 469.0 W/m2 CLR
14:42 11.1 °F /  -11.6 °C 6.7 °F /  -14.1 °C 1026.0 in /  34740.4 hPa ESE 6.4 mph /  10.3 km/h 6.4 mph /  10.3 km/h 74 % 0.0 in /  0 mm 462.0 W/m2 CLR
14:47 11.1 °F /  -11.6 °C 6.4 °F /  -14.2 °C 1026.0 in /  34740.4 hPa East 5.6 mph /  9 km/h 5.6 mph /  9 km/h 73 % 0.0 in /  0 mm 455.0 W/m2 CLR
14:52 11.1 °F /  -11.6 °C 6.4 °F /  -14.2 °C 1025.6 in /  34726.8 hPa Calm   0.3 mph /  0.5 km/h 73 % 0.0 in /  0 mm 450.0 W/m2 CLR
14:57 11.7 °F /  -11.3 °C 6.8 °F /  -14 °C 1025.6 in /  34726.8 hPa ESE 8.0 mph /  12.9 km/h 8.0 mph /  12.9 km/h 72 % 0.0 in /  0 mm 443.0 W/m2 CLR
15:02 11.7 °F /  -11.3 °C 6.8 °F /  -14 °C 1025.6 in /  34726.8 hPa NE 7.4 mph /  11.9 km/h 7.4 mph /  11.9 km/h 72 % 0.0 in /  0 mm 434.0 W/m2 CLR
15:07 11.7 °F /  -11.3 °C 6.8 °F /  -14 °C 1025.3 in /  34716.7 hPa ESE 7.4 mph /  11.9 km/h 7.4 mph /  11.9 km/h 72 % 0.0 in /  0 mm 425.0 W/m2 CLR
15:12 11.7 °F /  -11.3 °C 7.0 °F /  -13.9 °C 1025.3 in /  34716.7 hPa East 9.3 mph /  15 km/h 9.3 mph /  15 km/h 73 % 0.0 in /  0 mm 417.0 W/m2 CLR
15:17 11.7 °F /  -11.3 °C 7.0 °F /  -13.9 °C 1025.3 in /  34716.7 hPa East 5.6 mph /  9 km/h 5.6 mph /  9 km/h 73 % 0.0 in /  0 mm 404.0 W/m2 CLR
15:22 11.7 °F /  -11.3 °C 6.8 °F /  -14 °C 1025.3 in /  34716.7 hPa East 5.6 mph /  9 km/h 5.6 mph /  9 km/h 72 % 0.0 in /  0 mm 396.0 W/m2 CLR
15:27 11.7 °F /  -11.3 °C 6.8 °F /  -14 °C 1024.9 in /  34703.1 hPa ENE 3.7 mph /  6 km/h 3.7 mph /  6 km/h 72 % 0.0 in /  0 mm 387.0 W/m2 CLR
15:32 11.7 °F /  -11.3 °C 6.8 °F /  -14 °C 1024.9 in /  34703.1 hPa ESE 3.7 mph /  6 km/h 3.7 mph /  6 km/h 72 % 0.0 in /  0 mm 376.0 W/m2 CLR
15:37 11.7 °F /  -11.3 °C 6.8 °F /  -14 °C 1024.9 in /  34703.1 hPa ENE 7.4 mph /  11.9 km/h 7.4 mph /  11.9 km/h 72 % 0.0 in /  0 mm 366.0 W/m2 CLR
15:42 11.7 °F /  -11.3 °C 6.8 °F /  -14 °C 1024.9 in /  34703.1 hPa ENE 7.4 mph /  11.9 km/h 7.4 mph /  11.9 km/h 72 % 0.0 in /  0 mm 353.0 W/m2 CLR
15:47 11.7 °F /  -11.3 °C 6.8 °F /  -14 °C 1024.9 in /  34703.1 hPa Calm     72 % 0.0 in /  0 mm 343.0 W/m2 CLR
15:52 11.7 °F /  -11.3 °C 6.8 °F /  -14 °C 1024.9 in /  34703.1 hPa East 5.6 mph /  9 km/h 5.6 mph /  9 km/h 72 % 0.0 in /  0 mm 329.0 W/m2 CLR
15:57 11.7 °F /  -11.3 °C 7.0 °F /  -13.9 °C 1024.9 in /  34703.1 hPa East 6.4 mph /  10.3 km/h 6.4 mph /  10.3 km/h 73 % 0.0 in /  0 mm 316.0 W/m2 CLR
16:02 11.7 °F /  -11.3 °C 7.0 °F /  -13.9 °C 1024.9 in /  34703.1 hPa ENE 5.6 mph /  9 km/h 5.6 mph /  9 km/h 73 % 0.0 in /  0 mm 304.0 W/m2 CLR
16:07 11.1 °F /  -11.6 °C 6.7 °F /  -14.1 °C 1024.6 in /  34693 hPa ENE 5.6 mph /  9 km/h 5.6 mph /  9 km/h 74 % 0.0 in /  0 mm 290.0 W/m2 CLR
16:12 11.1 °F /  -11.6 °C 6.7 °F /  -14.1 °C 1024.6 in /  34693 hPa ENE 5.6 mph /  9 km/h 5.6 mph /  9 km/h 74 % 0.0 in /  0 mm 278.0 W/m2 CLR
16:17 10.6 °F /  -11.9 °C 6.1 °F /  -14.4 °C 1024.6 in /  34693 hPa ENE 5.6 mph /  9 km/h 5.6 mph /  9 km/h 74 % 0.0 in /  0 mm 267.0 W/m2 CLR
16:22 10.6 °F /  -11.9 °C 6.1 °F /  -14.4 °C 1024.6 in /  34693 hPa East 6.4 mph /  10.3 km/h 6.4 mph /  10.3 km/h 74 % 0.0 in /  0 mm 251.0 W/m2 CLR
16:27 10.6 °F /  -11.9 °C 6.1 °F /  -14.4 °C 1024.3 in /  34682.8 hPa East 1.9 mph /  3.1 km/h   74 % 0.0 in /  0 mm 236.0 W/m2 CLR
16:33 10.6 °F /  -11.9 °C 6.1 °F /  -14.4 °C 1024.3 in /  34682.8 hPa ENE 5.6 mph /  9 km/h   74 % 0.0 in /  0 mm 225.0 W/m2 CLR
16:38 10.6 °F /  -11.9 °C 6.1 °F /  -14.4 °C 1024.3 in /  34682.8 hPa Calm     74 % 0.0 in /  0 mm 209.0 W/m2 CLR
16:43 10.6 °F /  -11.9 °C 6.1 °F /  -14.4 °C 1024.3 in /  34682.8 hPa East 3.2 mph /  5.1 km/h 3.2 mph /  5.1 km/h 74 % 0.0 in /  0 mm 192.0 W/m2 CLR
16:48 10.6 °F /  -11.9 °C 6.3 °F /  -14.3 °C 1024.3 in /  34682.8 hPa Calm     75 % 0.0 in /  0 mm 174.0 W/m2 CLR
16:53 10.6 °F /  -11.9 °C 6.3 °F /  -14.3 °C 1024.3 in /  34682.8 hPa Calm     75 % 0.0 in /  0 mm 158.0 W/m2 CLR
16:58 10.6 °F /  -11.9 °C 6.3 °F /  -14.3 °C 1023.9 in /  34669.3 hPa Calm     75 % 0.0 in /  0 mm 142.0 W/m2 CLR
17:03 10.6 °F /  -11.9 °C 6.1 °F /  -14.4 °C 1023.9 in /  34669.3 hPa Calm     74 % 0.0 in /  0 mm 130.0 W/m2 CLR
17:08 10.6 °F /  -11.9 °C 6.1 °F /  -14.4 °C 1023.9 in /  34669.3 hPa Calm     74 % 0.0 in /  0 mm 114.0 W/m2 CLR
17:13 10.0 °F /  -12.2 °C 5.6 °F /  -14.7 °C 1023.9 in /  34669.3 hPa Calm     74 % 0.0 in /  0 mm 102.0 W/m2 CLR
17:18 9.4 °F /  -12.6 °C 5.1 °F /  -14.9 °C 1023.9 in /  34669.3 hPa Calm     74 % 0.0 in /  0 mm 86.0 W/m2 CLR
17:23 9.4 °F /  -12.6 °C 5.1 °F /  -14.9 °C 1023.9 in /  34669.3 hPa Calm     74 % 0.0 in /  0 mm 74.0 W/m2 FEW
17:28 9.4 °F /  -12.6 °C 5.1 °F /  -14.9 °C 1023.9 in /  34669.3 hPa Calm     74 % 0.0 in /  0 mm 54.0 W/m2 SCT
17:33 8.9 °F /  -12.8 °C 4.7 °F /  -15.2 °C 1023.9 in /  34669.3 hPa Calm     75 % 0.0 in /  0 mm 49.0 W/m2 SCT
17:38 8.3 °F /  -13.2 °C 4.2 °F /  -15.4 °C 1023.9 in /  34669.3 hPa Calm     75 % 0.0 in /  0 mm 39.0 W/m2 BKN
17:43 8.3 °F /  -13.2 °C 3.9 °F /  -15.6 °C 1023.6 in /  34659.1 hPa Calm     74 % 0.0 in /  0 mm 32.0 W/m2 BKN
17:48 8.3 °F /  -13.2 °C 3.9 °F /  -15.6 °C 1023.6 in /  34659.1 hPa Calm     74 % 0.0 in /  0 mm 25.0 W/m2 BKN
17:53 7.8 °F /  -13.4 °C 3.6 °F /  -15.8 °C 1023.6 in /  34659.1 hPa Calm     75 % 0.0 in /  0 mm 19.0 W/m2 BKN
17:58 7.2 °F /  -13.8 °C 3.1 °F /  -16.1 °C 1023.2 in /  34645.6 hPa Calm     75 % 0.0 in /  0 mm 16.0 W/m2 BKN
18:03 6.7 °F /  -14.1 °C 2.6 °F /  -16.3 °C 1023.2 in /  34645.6 hPa Calm     75 % 0.0 in /  0 mm 12.0 W/m2 BKN
18:08 6.7 °F /  -14.1 °C 2.7 °F /  -16.3 °C 1023.2 in /  34645.6 hPa Calm     76 % 0.0 in /  0 mm 9.0 W/m2 BKN
18:13 6.1 °F /  -14.4 °C 2.4 °F /  -16.4 °C 1023.2 in /  34645.6 hPa Calm     77 % 0.0 in /  0 mm 5.0 W/m2 BKN
18:18 6.1 °F /  -14.4 °C 2.4 °F /  -16.4 °C 1023.2 in /  34645.6 hPa Calm     77 % 0.0 in /  0 mm 0.0 W/m2 OVC
18:23 5.6 °F /  -14.7 °C 2.0 °F /  -16.7 °C 1022.9 in /  34635.4 hPa Calm     78 % 0.0 in /  0 mm 0.0 W/m2 OVC
18:28 5.6 °F /  -14.7 °C 2.2 °F /  -16.6 °C 1022.9 in /  34635.4 hPa Calm     79 % 0.0 in /  0 mm 0.0 W/m2 CLR
18:33 5.6 °F /  -14.7 °C 2.2 °F /  -16.6 °C 1022.9 in /  34635.4 hPa Calm     79 % 0.0 in /  0 mm 0.0 W/m2 CLR
18:38 5.0 °F /  -15 °C 1.8 °F /  -16.8 °C 1022.9 in /  34635.4 hPa Calm     80 % 0.0 in /  0 mm 0.0 W/m2 CLR
18:43 5.0 °F /  -15 °C 1.8 °F /  -16.8 °C 1022.9 in /  34635.4 hPa Calm     80 % 0.0 in /  0 mm 0.0 W/m2 CLR
18:48 5.0 °F /  -15 °C 2.0 °F /  -16.7 °C 1022.9 in /  34635.4 hPa Calm     81 % 0.0 in /  0 mm 0.0 W/m2 CLR
18:53 5.0 °F /  -15 °C 2.0 °F /  -16.7 °C 1022.9 in /  34635.4 hPa Calm     81 % 0.0 in /  0 mm 0.0 W/m2 CLR
18:58 5.0 °F /  -15 °C 2.3 °F /  -16.5 °C 1022.9 in /  34635.4 hPa Calm     83 % 0.0 in /  0 mm 0.0 W/m2 CLR
19:03 5.0 °F /  -15 °C 2.5 °F /  -16.4 °C 1023.2 in /  34645.6 hPa Calm     84 % 0.0 in /  0 mm 0.0 W/m2 CLR
19:08 5.0 °F /  -15 °C 2.7 °F /  -16.3 °C 1022.9 in /  34635.4 hPa Calm     85 % 0.0 in /  0 mm 0.0 W/m2 CLR
19:13 5.0 °F /  -15 °C 2.7 °F /  -16.3 °C 1023.2 in /  34645.6 hPa Calm     85 % 0.0 in /  0 mm 0.0 W/m2 CLR
19:18 5.0 °F /  -15 °C 2.8 °F /  -16.2 °C 1023.2 in /  34645.6 hPa Calm     86 % 0.0 in /  0 mm 0.0 W/m2 CLR
19:23 5.0 °F /  -15 °C 2.8 °F /  -16.2 °C 1022.9 in /  34635.4 hPa Calm     86 % 0.0 in /  0 mm 0.0 W/m2 CLR
19:28 5.0 °F /  -15 °C 2.8 °F /  -16.2 °C 1022.9 in /  34635.4 hPa Calm     86 % 0.0 in /  0 mm 0.0 W/m2 CLR
19:33 4.4 °F /  -15.3 °C 2.4 °F /  -16.4 °C 1022.9 in /  34635.4 hPa Calm     87 % 0.0 in /  0 mm 0.0 W/m2 CLR
19:38 4.4 °F /  -15.3 °C 2.4 °F /  -16.4 °C 1022.9 in /  34635.4 hPa Calm     87 % 0.0 in /  0 mm 0.0 W/m2 CLR
19:43 3.9 °F /  -15.6 °C 1.9 °F /  -16.7 °C 1023.2 in /  34645.6 hPa Calm     87 % 0.0 in /  0 mm 0.0 W/m2 CLR
19:48 3.3 °F /  -15.9 °C 1.6 °F /  -16.9 °C 1023.2 in /  34645.6 hPa Calm     88 % 0.0 in /  0 mm 0.0 W/m2 CLR
19:53 3.3 °F /  -15.9 °C 1.6 °F /  -16.9 °C 1023.2 in /  34645.6 hPa Calm     88 % 0.0 in /  0 mm 0.0 W/m2 CLR
19:58 2.8 °F /  -16.2 °C 1.0 °F /  -17.2 °C 1023.2 in /  34645.6 hPa Calm     88 % 0.0 in /  0 mm 0.0 W/m2 CLR
20:03 2.8 °F /  -16.2 °C 0.8 °F /  -17.3 °C 1023.2 in /  34645.6 hPa Calm     87 % 0.0 in /  0 mm 0.0 W/m2 CLR
20:08 2.8 °F /  -16.2 °C 1.0 °F /  -17.2 °C 1023.6 in /  34659.1 hPa Calm     88 % 0.0 in /  0 mm 0.0 W/m2 CLR
20:13 2.2 °F /  -16.6 °C 0.6 °F /  -17.4 °C 1023.6 in /  34659.1 hPa Calm     89 % 0.0 in /  0 mm 0.0 W/m2 CLR
20:18 2.2 °F /  -16.6 °C 0.6 °F /  -17.4 °C 1023.2 in /  34645.6 hPa Calm     89 % 0.0 in /  0 mm 0.0 W/m2 CLR
20:23 2.2 °F /  -16.6 °C 0.6 °F /  -17.4 °C 1023.2 in /  34645.6 hPa Calm     89 % 0.0 in /  0 mm 0.0 W/m2 CLR
20:28 2.2 °F /  -16.6 °C 0.6 °F /  -17.4 °C 1023.2 in /  34645.6 hPa Calm     89 % 0.0 in /  0 mm 0.0 W/m2 CLR
20:33 2.2 °F /  -16.6 °C 0.8 °F /  -17.3 °C 1023.2 in /  34645.6 hPa Calm     90 % 0.0 in /  0 mm 0.0 W/m2 CLR
20:38 2.2 °F /  -16.6 °C 0.8 °F /  -17.3 °C 1023.6 in /  34659.1 hPa Calm     90 % 0.0 in /  0 mm 0.0 W/m2 CLR
20:43 2.2 °F /  -16.6 °C 0.8 °F /  -17.3 °C 1023.2 in /  34645.6 hPa Calm     90 % 0.0 in /  0 mm 0.0 W/m2 CLR
20:48 2.8 °F /  -16.2 °C 1.3 °F /  -17.1 °C 1023.2 in /  34645.6 hPa Calm     90 % 0.0 in /  0 mm 0.0 W/m2 CLR
20:53 2.8 °F /  -16.2 °C 1.3 °F /  -17.1 °C 1023.2 in /  34645.6 hPa Calm     90 % 0.0 in /  0 mm 0.0 W/m2 CLR
20:58 2.8 °F /  -16.2 °C 1.3 °F /  -17.1 °C 1023.2 in /  34645.6 hPa West 6.4 mph /  10.3 km/h 6.4 mph /  10.3 km/h 90 % 0.0 in /  0 mm 0.0 W/m2 CLR
21:03 2.8 °F /  -16.2 °C 1.3 °F /  -17.1 °C 1023.2 in /  34645.6 hPa WSW 5.6 mph /  9 km/h 5.6 mph /  9 km/h 90 % 0.0 in /  0 mm 0.0 W/m2 CLR
21:08 2.8 °F /  -16.2 °C 1.4 °F /  -17 °C 1022.9 in /  34635.4 hPa WSW 7.4 mph /  11.9 km/h 7.4 mph /  11.9 km/h 91 % 0.0 in /  0 mm 0.0 W/m2 CLR
21:13 2.8 °F /  -16.2 °C 1.3 °F /  -17.1 °C 1022.9 in /  34635.4 hPa Calm     90 % 0.0 in /  0 mm 0.0 W/m2 CLR
21:18 2.2 °F /  -16.6 °C 0.8 °F /  -17.3 °C 1022.9 in /  34635.4 hPa Calm     90 % 0.0 in /  0 mm 0.0 W/m2 CLR
21:23 2.2 °F /  -16.6 °C 0.8 °F /  -17.3 °C 1022.9 in /  34635.4 hPa SW 4.8 mph /  7.7 km/h 4.8 mph /  7.7 km/h 90 % 0.0 in /  0 mm 0.0 W/m2 CLR
21:28 1.7 °F /  -16.8 °C 0.2 °F /  -17.7 °C 1022.9 in /  34635.4 hPa WSW 5.6 mph /  9 km/h 5.6 mph /  9 km/h 90 % 0.0 in /  0 mm 0.0 W/m2 CLR
21:34 1.7 °F /  -16.8 °C 0.2 °F /  -17.7 °C 1022.9 in /  34635.4 hPa WSW 5.6 mph /  9 km/h 5.6 mph /  9 km/h 90 % 0.0 in /  0 mm 0.0 W/m2 CLR
21:39 1.7 °F /  -16.8 °C 0.2 °F /  -17.7 °C 1022.9 in /  34635.4 hPa Calm     90 % 0.0 in /  0 mm 0.0 W/m2 CLR
21:44 1.7 °F /  -16.8 °C 0.2 °F /  -17.7 °C 1022.9 in /  34635.4 hPa Calm     90 % 0.0 in /  0 mm 0.0 W/m2 CLR
21:49 1.1 °F /  -17.2 °C -0.3 °F /  -17.9 °C 1022.9 in /  34635.4 hPa Calm     90 % 0.0 in /  0 mm 0.0 W/m2 CLR
21:54 1.1 °F /  -17.2 °C -0.3 °F /  -17.9 °C 1022.6 in /  34625.2 hPa Calm     90 % 0.0 in /  0 mm 0.0 W/m2 CLR
21:59 1.1 °F /  -17.2 °C -0.3 °F /  -17.9 °C 1022.6 in /  34625.2 hPa Calm     90 % 0.0 in /  0 mm 0.0 W/m2 CLR
22:04 0.6 °F /  -17.4 °C -0.7 °F /  -18.2 °C 1022.6 in /  34625.2 hPa WSW 5.6 mph /  9 km/h 5.6 mph /  9 km/h 91 % 0.0 in /  0 mm 0.0 W/m2 CLR
22:09 0.6 °F /  -17.4 °C -0.7 °F /  -18.2 °C 1022.6 in /  34625.2 hPa Calm     91 % 0.0 in /  0 mm 0.0 W/m2 CLR
22:14 0.6 °F /  -17.4 °C -0.7 °F /  -18.2 °C 1022.6 in /  34625.2 hPa Calm     91 % 0.0 in /  0 mm 0.0 W/m2 CLR
22:19 0.6 °F /  -17.4 °C -0.7 °F /  -18.2 °C 1022.2 in /  34611.7 hPa Calm     91 % 0.0 in /  0 mm 0.0 W/m2 CLR
22:24 0.6 °F /  -17.4 °C -0.7 °F /  -18.2 °C 1022.6 in /  34625.2 hPa Calm     91 % 0.0 in /  0 mm 0.0 W/m2 CLR
22:29 0.6 °F /  -17.4 °C -0.7 °F /  -18.2 °C 1022.2 in /  34611.7 hPa Calm     91 % 0.0 in /  0 mm 0.0 W/m2 CLR
22:34 0.6 °F /  -17.4 °C -0.7 °F /  -18.2 °C 1022.2 in /  34611.7 hPa Calm     91 % 0.0 in /  0 mm 0.0 W/m2 CLR
22:39 0.6 °F /  -17.4 °C -0.7 °F /  -18.2 °C 1021.9 in /  34601.5 hPa Calm     91 % 0.0 in /  0 mm 0.0 W/m2 CLR
22:44 0.6 °F /  -17.4 °C -0.7 °F /  -18.2 °C 1021.9 in /  34601.5 hPa Calm     91 % 0.0 in /  0 mm 0.0 W/m2 CLR
22:49 0.6 °F /  -17.4 °C -0.7 °F /  -18.2 °C 1021.9 in /  34601.5 hPa Calm     91 % 0.0 in /  0 mm 0.0 W/m2 CLR
22:54 0.6 °F /  -17.4 °C -0.7 °F /  -18.2 °C 1021.6 in /  34591.4 hPa Calm     91 % 0.0 in /  0 mm 0.0 W/m2 CLR
22:59 0.6 °F /  -17.4 °C -0.7 °F /  -18.2 °C 1021.6 in /  34591.4 hPa Calm     91 % 0.0 in /  0 mm 0.0 W/m2 CLR
23:04 0.0 °F /  -17.8 °C -1.3 °F /  -18.5 °C 1021.6 in /  34591.4 hPa Calm     91 % 0.0 in /  0 mm 0.0 W/m2 CLR
23:09 0.0 °F /  -17.8 °C -1.3 °F /  -18.5 °C 1021.6 in /  34591.4 hPa Calm     91 % 0.0 in /  0 mm 0.0 W/m2 CLR
23:14 0.0 °F /  -17.8 °C -1.3 °F /  -18.5 °C 1021.6 in /  34591.4 hPa Calm     91 % 0.0 in /  0 mm 0.0 W/m2 CLR
23:19 0.0 °F /  -17.8 °C -1.3 °F /  -18.5 °C 1021.2 in /  34577.8 hPa Calm     91 % 0.0 in /  0 mm 0.0 W/m2 CLR
23:24 -0.6 °F /  -18.1 °C -1.8 °F /  -18.8 °C 1021.2 in /  34577.8 hPa Calm     91 % 0.0 in /  0 mm 0.0 W/m2 CLR
23:29 0.0 °F /  -17.8 °C -1.3 °F /  -18.5 °C 1021.2 in /  34577.8 hPa Calm     91 % 0.0 in /  0 mm 0.0 W/m2 CLR
23:34 0.0 °F /  -17.8 °C -1.2 °F /  -18.4 °C 1021.2 in /  34577.8 hPa WNW 3.2 mph /  5.1 km/h 3.2 mph /  5.1 km/h 92 % 0.0 in /  0 mm 0.0 W/m2 CLR
23:39 0.0 °F /  -17.8 °C -1.2 °F /  -18.4 °C 1021.2 in /  34577.8 hPa Calm     92 % 0.0 in /  0 mm 0.0 W/m2 CLR
23:44 0.6 °F /  -17.4 °C -0.6 °F /  -18.1 °C 1021.2 in /  34577.8 hPa Calm     92 % 0.0 in /  0 mm 0.0 W/m2 CLR
23:49 0.0 °F /  -17.8 °C -1.2 °F /  -18.4 °C 1021.2 in /  34577.8 hPa Calm     92 % 0.0 in /  0 mm 0.0 W/m2 CLR
23:54 0.0 °F /  -17.8 °C -1.3 °F /  -18.5 °C 1020.9 in /  34567.7 hPa Calm     91 % 0.0 in /  0 mm 0.0 W/m2 CLR
23:59 0.0 °F /  -17.8 °C -1.2 °F /  -18.4 °C 1020.9 in /  34567.7 hPa Calm     92 % 0.0 in /  0 mm 0.0 W/m2 CLR
Lo Temps de Massalio
Compliments of Weather Underground - 1.25 mb